Karmel — 9HA2896 — position and weather

sailwx.info

Track history (hours):
 
Tides and Currents Weather Stations Pressure Air Temp Water Temp Dewpoint Dewpoint Depression Visibility Wind Speed Wind Dir Waves Ship Positions

Karmel

Last reported at 2017-Feb-24 16:33 UTC. Time now 2017-Feb-27 22:50 UTC.
Position N 60°25' E 019°03'.

Length 90 m; draft 3.9 m.

Type: Ship. MMSI: 256632000.

Date/timePositionNaut miles runAvg speedWind from/ knotsBaromVisibWave heightAir tempDewpointWater temp
2017-Feb-24 16:33N 60°25' E 019°03'6 5.1
2017-Feb-24 15:26N 60°19' E 019°01'4 5.0
2017-Feb-24 14:33N 60°15' E 019°04'7 6.5
2017-Feb-24 13:33N 60°09' E 019°10'8 7.9
2017-Feb-24 12:33N 60°03' E 019°20'8 8.3
2017-Feb-24 11:33N 59°57' E 019°31'8 8.4
2017-Feb-24 10:33N 59°50' E 019°42'106 8.0
2017-Feb-23 21:23N 58°37' E 017°13'910.5
2017-Feb-23 20:33N 58°37' E 016°57'1111.3
2017-Feb-23 19:33N 58°38' E 016°35'1110.7
2017-Feb-23 18:33N 58°37' E 016°15'2 1.5
2017-Feb-23 17:29N 58°36' E 016°13'0 0.0
2017-Feb-23 16:32N 58°36' E 016°13'0 0.0
2017-Feb-23 15:32N 58°36' E 016°13'0 0.0
2017-Feb-23 14:32N 58°36' E 016°13'0 0.0
2017-Feb-23 12:17N 58°36' E 016°13'0 0.0
2017-Feb-23 11:23N 58°36' E 016°13'0 0.0
2017-Feb-23 09:29N 58°36' E 016°13'0 0.0
2017-Feb-23 08:29N 58°36' E 016°13'0 0.0
2017-Feb-23 07:29N 58°36' E 016°13'0 0.0
2017-Feb-23 06:17N 58°36' E 016°13'0 0.0
2017-Feb-23 05:29N 58°36' E 016°13'0 0.0
2017-Feb-23 04:29N 58°36' E 016°13'0 0.0
2017-Feb-23 03:29N 58°36' E 016°13'0 0.0
2017-Feb-23 02:29N 58°36' E 016°13'0 0.0
2017-Feb-23 01:29N 58°36' E 016°13'0 0.0
2017-Feb-23 00:29N 58°36' E 016°13'0 0.0
2017-Feb-22 23:29N 58°36' E 016°13'0 0.0
2017-Feb-22 22:29N 58°36' E 016°13'0 0.0
2017-Feb-22 21:29N 58°36' E 016°13'0 0.0
2017-Feb-22 20:23N 58°36' E 016°13'0 0.0
2017-Feb-22 19:29N 58°36' E 016°13'0 0.0
2017-Feb-22 18:23N 58°36' E 016°13'0 0.0
2017-Feb-22 17:17N 58°36' E 016°13'0 0.0
2017-Feb-22 15:11N 58°36' E 016°13'0 0.0
2017-Feb-22 14:23N 58°36' E 016°13'0 0.0
2017-Feb-22 12:32N 58°36' E 016°13'0 0.0
2017-Feb-22 11:29N 58°36' E 016°13'0 0.0
2017-Feb-22 10:23N 58°36' E 016°13'0 0.0
2017-Feb-22 09:29N 58°36' E 016°13'0 0.0
2017-Feb-22 08:32N 58°36' E 016°13'0 0.0
2017-Feb-22 07:32N 58°36' E 016°13'0 0.0
2017-Feb-22 06:29N 58°36' E 016°13'0 0.0
2017-Feb-22 05:29N 58°36' E 016°13'0 0.0
2017-Feb-22 04:29N 58°36' E 016°13'0 0.0
2017-Feb-22 03:29N 58°36' E 016°13'0 0.0
2017-Feb-22 02:29N 58°36' E 016°13'0 0.0
2017-Feb-22 01:29N 58°36' E 016°13'0 0.0
2017-Feb-22 00:29N 58°36' E 016°13'0 0.0
2017-Feb-21 23:29N 58°36' E 016°13'0 0.0
2017-Feb-21 22:29N 58°36' E 016°13'0 0.0
2017-Feb-21 21:29N 58°36' E 016°13'0 0.0
2017-Feb-21 20:29N 58°36' E 016°13'0 0.0
2017-Feb-21 19:29N 58°36' E 016°13'0 0.0
2017-Feb-21 18:17N 58°36' E 016°13'0 0.0
2017-Feb-21 17:17N 58°36' E 016°13'0 0.0
2017-Feb-21 16:23N 58°36' E 016°13'0 0.0
2017-Feb-21 15:05N 58°36' E 016°13'0 0.0
2017-Feb-21 11:23N 58°36' E 016°13'0 0.0
2017-Feb-21 08:23N 58°36' E 016°13'2 2.6
2017-Feb-21 07:33N 58°37' E 016°16'10 9.5
2017-Feb-21 06:34N 58°38' E 016°34'1010.3
2017-Feb-21 05:33N 58°36' E 016°53'1010.4
2017-Feb-21 04:33N 58°37' E 017°13'9 7.7
2017-Feb-21 03:24N 58°33' E 017°28'13410.4
2017-Feb-20 14:33N 56°20' E 016°55'10 9.6
2017-Feb-20 13:33N 56°11' E 016°52'9 9.0
2017-Feb-20 12:33N 56°03' E 016°44'1010.4
2017-Feb-20 11:34N 55°58' E 016°28'1010.5
2017-Feb-20 10:33N 55°53' E 016°11'1110.5
2017-Feb-20 09:33N 55°48' E 015°55'1110.5
2017-Feb-20 08:34N 55°43' E 015°38'1110.5
2017-Feb-20 07:34N 55°38' E 015°22'1110.7
2017-Feb-20 06:33N 55°32' E 015°06'1110.7
2017-Feb-20 05:33N 55°27' E 014°49'1010.4
2017-Feb-20 04:33N 55°21' E 014°34'1110.6
2017-Feb-20 03:33N 55°13' E 014°23'1110.7
2017-Feb-20 02:33N 55°04' E 014°12'1110.7
2017-Feb-20 01:33N 54°59' E 013°55'1110.8
2017-Feb-20 00:33N 54°55' E 013°38'2110.5
2017-Feb-19 22:31N 54°48' E 013°03'1010.5
2017-Feb-19 21:34N 54°45' E 012°46'1110.9
2017-Feb-19 20:34N 54°39' E 012°30'1010.3
2017-Feb-19 19:34N 54°32' E 012°17'1010.2
2017-Feb-19 18:33N 54°25' E 012°06'1111.4
2017-Feb-19 17:34N 54°25' E 011°46'1211.9
2017-Feb-19 16:33N 54°30' E 011°27'1212.0
2017-Feb-19 15:34N 54°35' E 011°09'1211.5
2017-Feb-19 14:34N 54°35' E 010°49'60 6.7
2017-Feb-19 05:33N 54°05' E 009°19'9 8.5
2017-Feb-19 04:33N 53°57' E 009°14'4 4.4
2017-Feb-19 03:33N 53°54' E 009°09'2 1.9
2017-Feb-19 02:33N 53°53' E 009°06'1111.4
2017-Feb-19 01:34N 53°51' E 008°47'1111.1
2017-Feb-19 00:33N 53°58' E 008°33'8110.0
2017-Feb-18 16:24N 53°37' E 006°19'2010.1
2017-Feb-18 14:23N 53°28' E 006°50'1 0.1
2017-Feb-18 00:08N 53°27' E 006°49'0 0.0
2017-Feb-17 23:29N 53°27' E 006°49'0 0.0
2017-Feb-17 22:32N 53°27' E 006°49'0 0.0
2017-Feb-17 21:32N 53°27' E 006°49'0 0.0
2017-Feb-17 20:32N 53°27' E 006°49'0 0.0
2017-Feb-17 19:32N 53°27' E 006°49'0 0.0
2017-Feb-17 18:32N 53°27' E 006°49'0 0.0
2017-Feb-17 16:32N 53°27' E 006°49'0 0.0
2017-Feb-17 15:05N 53°27' E 006°49'0 0.0
2017-Feb-17 13:26N 53°27' E 006°49'0 0.0
2017-Feb-17 12:32N 53°27' E 006°49'0 0.0
2017-Feb-17 11:32N 53°27' E 006°49'0 0.0
2017-Feb-17 10:32N 53°27' E 006°49'0 0.0
2017-Feb-16 23:33N 53°27' E 006°50'130 6.8
2017-Feb-16 04:34N 52°28' E 003°39'1312.7
2017-Feb-16 03:32N 52°19' E 003°23'5610.7
2017-Feb-15 22:20N 51°37' E 002°23'810.3
2017-Feb-15 21:33N 51°31' E 002°14'1111.1
2017-Feb-15 20:34N 51°23' E 002°02'1211.6
2017-Feb-15 19:34N 51°14' E 001°50'1212.2
2017-Feb-15 18:34N 51°05' E 001°38'1312.9
2017-Feb-15 17:32N 50°54' E 001°26'5911.9
2017-Feb-15 12:33N 50°20' E 000°09'11011.6
2017-Feb-15 03:04N 49°50' W 002°37'5 9.6
2017-Feb-15 02:33N 49°49' W 002°44'9 8.6
2017-Feb-15 01:33N 49°42' W 002°51'  
Track history (hours):
 
Tides and Currents Weather Stations Pressure Air Temp Water Temp Dewpoint Dewpoint Depression Visibility Wind Speed Wind Dir Waves Ship Positions

Karmel

Last reported at 2017-Feb-24 16:33 UTC. Time now 2017-Feb-27 22:50 UTC.
Position N 60°25' E 019°03'.

Length 90 m; draft 3.9 m.

Type: Ship. MMSI: 256632000.

Date/timePositionNaut miles runAvg speedWind from/ knotsBaromVisibWave heightAir tempDewpointWater temp
2017-Feb-24 16:33N 60°25' E 019°03'6 5.1
2017-Feb-24 15:26N 60°19' E 019°01'4 5.0
2017-Feb-24 14:33N 60°15' E 019°04'7 6.5
2017-Feb-24 13:33N 60°09' E 019°10'8 7.9
2017-Feb-24 12:33N 60°03' E 019°20'8 8.3
2017-Feb-24 11:33N 59°57' E 019°31'8 8.4
2017-Feb-24 10:33N 59°50' E 019°42'106 8.0
2017-Feb-23 21:23N 58°37' E 017°13'910.5
2017-Feb-23 20:33N 58°37' E 016°57'1111.3
2017-Feb-23 19:33N 58°38' E 016°35'1110.7
2017-Feb-23 18:33N 58°37' E 016°15'2 1.5
2017-Feb-23 17:29N 58°36' E 016°13'0 0.0
2017-Feb-23 16:32N 58°36' E 016°13'0 0.0
2017-Feb-23 15:32N 58°36' E 016°13'0 0.0
2017-Feb-23 14:32N 58°36' E 016°13'0 0.0
2017-Feb-23 12:17N 58°36' E 016°13'0 0.0
2017-Feb-23 11:23N 58°36' E 016°13'0 0.0
2017-Feb-23 09:29N 58°36' E 016°13'0 0.0
2017-Feb-23 08:29N 58°36' E 016°13'0 0.0
2017-Feb-23 07:29N 58°36' E 016°13'0 0.0
2017-Feb-23 06:17N 58°36' E 016°13'0 0.0
2017-Feb-23 05:29N 58°36' E 016°13'0 0.0
2017-Feb-23 04:29N 58°36' E 016°13'0 0.0
2017-Feb-23 03:29N 58°36' E 016°13'0 0.0
2017-Feb-23 02:29N 58°36' E 016°13'0 0.0
2017-Feb-23 01:29N 58°36' E 016°13'0 0.0
2017-Feb-23 00:29N 58°36' E 016°13'0 0.0
2017-Feb-22 23:29N 58°36' E 016°13'0 0.0
2017-Feb-22 22:29N 58°36' E 016°13'0 0.0
2017-Feb-22 21:29N 58°36' E 016°13'0 0.0
2017-Feb-22 20:23N 58°36' E 016°13'0 0.0
2017-Feb-22 19:29N 58°36' E 016°13'0 0.0
2017-Feb-22 18:23N 58°36' E 016°13'0 0.0
2017-Feb-22 17:17N 58°36' E 016°13'0 0.0
2017-Feb-22 15:11N 58°36' E 016°13'0 0.0
2017-Feb-22 14:23N 58°36' E 016°13'0 0.0
2017-Feb-22 12:32N 58°36' E 016°13'0 0.0
2017-Feb-22 11:29N 58°36' E 016°13'0 0.0
2017-Feb-22 10:23N 58°36' E 016°13'0 0.0
2017-Feb-22 09:29N 58°36' E 016°13'0 0.0
2017-Feb-22 08:32N 58°36' E 016°13'0 0.0
2017-Feb-22 07:32N 58°36' E 016°13'0 0.0
2017-Feb-22 06:29N 58°36' E 016°13'0 0.0
2017-Feb-22 05:29N 58°36' E 016°13'0 0.0
2017-Feb-22 04:29N 58°36' E 016°13'0 0.0
2017-Feb-22 03:29N 58°36' E 016°13'0 0.0
2017-Feb-22 02:29N 58°36' E 016°13'0 0.0
2017-Feb-22 01:29N 58°36' E 016°13'0 0.0
2017-Feb-22 00:29N 58°36' E 016°13'0 0.0
2017-Feb-21 23:29N 58°36' E 016°13'0 0.0
2017-Feb-21 22:29N 58°36' E 016°13'0 0.0
2017-Feb-21 21:29N 58°36' E 016°13'0 0.0
2017-Feb-21 20:29N 58°36' E 016°13'0 0.0
2017-Feb-21 19:29N 58°36' E 016°13'0 0.0
2017-Feb-21 18:17N 58°36' E 016°13'0 0.0
2017-Feb-21 17:17N 58°36' E 016°13'0 0.0
2017-Feb-21 16:23N 58°36' E 016°13'0 0.0
2017-Feb-21 15:05N 58°36' E 016°13'0 0.0
2017-Feb-21 11:23N 58°36' E 016°13'0 0.0
2017-Feb-21 08:23N 58°36' E 016°13'2 2.6
2017-Feb-21 07:33N 58°37' E 016°16'10 9.5
2017-Feb-21 06:34N 58°38' E 016°34'1010.3
2017-Feb-21 05:33N 58°36' E 016°53'1010.4
2017-Feb-21 04:33N 58°37' E 017°13'9 7.7
2017-Feb-21 03:24N 58°33' E 017°28'13410.4
2017-Feb-20 14:33N 56°20' E 016°55'10 9.6
2017-Feb-20 13:33N 56°11' E 016°52'9 9.0
2017-Feb-20 12:33N 56°03' E 016°44'1010.4
2017-Feb-20 11:34N 55°58' E 016°28'1010.5
2017-Feb-20 10:33N 55°53' E 016°11'1110.5
2017-Feb-20 09:33N 55°48' E 015°55'1110.5
2017-Feb-20 08:34N 55°43' E 015°38'1110.5
2017-Feb-20 07:34N 55°38' E 015°22'1110.7
2017-Feb-20 06:33N 55°32' E 015°06'1110.7
2017-Feb-20 05:33N 55°27' E 014°49'1010.4
2017-Feb-20 04:33N 55°21' E 014°34'1110.6
2017-Feb-20 03:33N 55°13' E 014°23'1110.7
2017-Feb-20 02:33N 55°04' E 014°12'1110.7
2017-Feb-20 01:33N 54°59' E 013°55'1110.8
2017-Feb-20 00:33N 54°55' E 013°38'2110.5
2017-Feb-19 22:31N 54°48' E 013°03'1010.5
2017-Feb-19 21:34N 54°45' E 012°46'1110.9
2017-Feb-19 20:34N 54°39' E 012°30'1010.3
2017-Feb-19 19:34N 54°32' E 012°17'1010.2
2017-Feb-19 18:33N 54°25' E 012°06'1111.4
2017-Feb-19 17:34N 54°25' E 011°46'1211.9
2017-Feb-19 16:33N 54°30' E 011°27'1212.0
2017-Feb-19 15:34N 54°35' E 011°09'1211.5
2017-Feb-19 14:34N 54°35' E 010°49'60 6.7
2017-Feb-19 05:33N 54°05' E 009°19'9 8.5
2017-Feb-19 04:33N 53°57' E 009°14'4 4.4
2017-Feb-19 03:33N 53°54' E 009°09'2 1.9
2017-Feb-19 02:33N 53°53' E 009°06'1111.4
2017-Feb-19 01:34N 53°51' E 008°47'1111.1
2017-Feb-19 00:33N 53°58' E 008°33'8110.0
2017-Feb-18 16:24N 53°37' E 006°19'2010.1
2017-Feb-18 14:23N 53°28' E 006°50'1 0.1
2017-Feb-18 00:08N 53°27' E 006°49'0 0.0
2017-Feb-17 23:29N 53°27' E 006°49'0 0.0
2017-Feb-17 22:32N 53°27' E 006°49'0 0.0
2017-Feb-17 21:32N 53°27' E 006°49'0 0.0
2017-Feb-17 20:32N 53°27' E 006°49'0 0.0
2017-Feb-17 19:32N 53°27' E 006°49'0 0.0
2017-Feb-17 18:32N 53°27' E 006°49'0 0.0
2017-Feb-17 16:32N 53°27' E 006°49'0 0.0
2017-Feb-17 15:05N 53°27' E 006°49'0 0.0
2017-Feb-17 13:26N 53°27' E 006°49'0 0.0
2017-Feb-17 12:32N 53°27' E 006°49'0 0.0
2017-Feb-17 11:32N 53°27' E 006°49'0 0.0
2017-Feb-17 10:32N 53°27' E 006°49'0 0.0
2017-Feb-16 23:33N 53°27' E 006°50'130 6.8
2017-Feb-16 04:34N 52°28' E 003°39'1312.7
2017-Feb-16 03:32N 52°19' E 003°23'5610.7
2017-Feb-15 22:20N 51°37' E 002°23'810.3
2017-Feb-15 21:33N 51°31' E 002°14'1111.1
2017-Feb-15 20:34N 51°23' E 002°02'1211.6
2017-Feb-15 19:34N 51°14' E 001°50'1212.2
2017-Feb-15 18:34N 51°05' E 001°38'1312.9
2017-Feb-15 17:32N 50°54' E 001°26'5911.9
2017-Feb-15 12:33N 50°20' E 000°09'11011.6
2017-Feb-15 03:04N 49°50' W 002°37'5 9.6
2017-Feb-15 02:33N 49°49' W 002°44'9 8.6
2017-Feb-15 01:33N 49°42' W 002°51'  

Dump ship's entire track history